Time;durP1;ratioP1;P1;durP2;ratioP2;P2;SDS_P1;SDS_P2;PMS_P1;PMS_P2;Temp;Humidity;BMP_temperature;BMP_pressure;BME280_temperature;BME280_humidity;BME280_pressure;Samples;Min_cycle;Max_cycle;Signal;HPM_P1;HPM_P2
2021/12/16 00:31:53;;;;;;;21.27;14.80;;;;;;;4.21;100.00;98219.72;5088728;28;20437;-75
2021/12/16 00:34:23;;;;;;;19.30;12.93;;;;;;;4.36;100.00;98198.19;5054032;28;20507;-75
2021/12/16 00:36:50;;;;;;;19.87;13.20;;;;;;;4.49;100.00;98237.16;5069095;28;20473;-75
2021/12/16 00:39:22;;;;;;;22.77;13.97;;;;;;;4.52;100.00;98228.81;5053820;28;20567;-75
2021/12/16 00:41:54;;;;;;;18.40;11.90;;;;;;;4.42;100.00;98219.00;5036032;28;20440;-75
2021/12/16 00:47:24;;;;;;;16.43;12.50;;;;;;;4.55;100.00;98233.59;5084702;28;20511;-75
2021/12/16 00:49:51;;;;;;;17.90;12.07;;;;;;;4.43;100.00;98223.19;5068971;28;20437;-75
2021/12/16 00:57:42;;;;;;;20.23;12.70;;;;;;;4.29;100.00;98235.03;5086923;28;20484;-75
2021/12/16 01:00:13;;;;;;;18.40;13.10;;;;;;;4.26;100.00;98235.47;5053551;28;20544;-75
2021/12/16 01:42:33;;;;;;;17.90;12.87;;;;;;;4.77;100.00;98238.06;5084830;28;20499;-75
2021/12/16 01:50:22;;;;;;;17.23;12.40;;;;;;;4.64;100.00;98236.59;5084631;28;20507;-75
2021/12/16 01:53:09;;;;;;;20.10;13.97;;;;;;;4.63;100.00;98221.91;5051139;28;20452;-75
2021/12/16 01:55:53;;;;;;;20.60;14.03;;;;;;;4.63;100.00;98232.38;5068049;28;21119;-75
2021/12/16 01:58:23;;;;;;;22.10;13.37;;;;;;;4.60;100.00;98231.03;5050628;28;20433;-75
2021/12/16 02:00:59;;;;;;;20.37;12.70;;;;;;;4.62;100.00;98226.34;5051350;28;20429;-75
2021/12/16 02:03:43;;;;;;;25.17;13.67;;;;;;;4.63;100.00;98220.06;5067542;28;20425;-75
2021/12/16 02:08:52;;;;;;;21.13;13.53;;;;;;;4.53;100.00;98214.69;5067476;28;20433;-75
2021/12/16 02:37:51;;;;;;;17.93;12.57;;;;;;;4.56;100.00;98206.38;5083750;28;20477;-75
2021/12/16 02:40:18;;;;;;;19.77;12.33;;;;;;;4.61;100.00;98203.00;5066882;28;20465;-75
2021/12/16 02:42:59;;;;;;;16.23;11.67;;;;;;;4.39;100.00;98171.53;5050204;28;20479;-75
2021/12/16 02:48:38;;;;;;;17.07;12.60;;;;;;;4.34;100.00;98195.03;5083665;28;20955;-75
2021/12/16 02:51:21;;;;;;;18.17;13.50;;;;;;;4.59;100.00;98198.00;5050158;28;20429;-75
2021/12/16 02:53:52;;;;;;;19.57;12.87;;;;;;;4.62;100.00;98199.34;5050314;28;20440;-75
2021/12/16 02:56:20;;;;;;;17.53;12.97;;;;;;;4.53;100.00;98187.69;5066434;28;20507;-75
2021/12/16 02:58:53;;;;;;;20.30;12.93;;;;;;;4.60;100.00;98196.97;5050014;28;20445;-75
2021/12/16 03:01:51;;;;;;;16.37;12.50;;;;;;;4.45;100.00;98196.75;5066419;28;20449;-75
2021/12/16 03:04:21;;;;;;;20.70;14.47;;;;;;;4.17;100.00;98174.09;5034902;28;20445;-75
2021/12/16 03:06:52;;;;;;;17.10;12.67;;;;;;;4.45;100.00;98183.66;5049802;28;20472;-75
2021/12/16 03:09:34;;;;;;;15.50;11.27;;;;;;;4.48;100.00;98185.81;5049554;28;20539;-75
2021/12/16 03:14:56;;;;;;;20.90;14.23;;;;;;;4.27;100.00;98207.47;5051364;28;20413;-75
2021/12/16 03:18:13;;;;;;;20.30;13.67;;;;;;;4.33;100.00;98202.09;5049677;28;20488;-75
2021/12/16 03:20:21;;;;;;;22.53;12.43;;;;;;;4.40;100.00;98199.28;5046803;28;20522;-74
2021/12/16 03:25:30;;;;;;;17.37;12.10;;;;;;;4.23;100.00;98188.84;5083269;28;20433;-75
2021/12/16 03:39:10;;;;;;;17.47;12.50;;;;;;;4.18;100.00;98186.16;5006371;28;20493;-75
2021/12/16 03:41:37;;;;;;;19.77;14.03;;;;;;;4.16;100.00;98190.84;5049702;28;20478;-75
2021/12/16 03:44:11;;;;;;;20.83;12.90;;;;;;;4.28;100.00;98201.22;5049442;28;20460;-75
2021/12/16 03:46:44;;;;;;;17.30;12.10;;;;;;;4.29;100.00;98194.97;5049458;28;20900;-75
2021/12/16 03:49:25;;;;;;;18.97;14.37;;;;;;;4.37;100.00;98191.94;5049526;28;20900;-75
2021/12/16 03:52:06;;;;;;;19.40;11.90;;;;;;;4.39;100.00;98177.56;5049434;28;20789;-75
2021/12/16 03:54:41;;;;;;;16.30;12.10;;;;;;;4.54;100.00;98197.97;5082989;28;20467;-75
2021/12/16 03:57:12;;;;;;;21.80;16.87;;;;;;;4.62;100.00;98189.66;5050730;28;21312;-75
2021/12/16 03:59:42;;;;;;;19.23;12.03;;;;;;;4.49;100.00;98178.75;5033228;28;20492;-75
2021/12/16 04:02:25;;;;;;;19.40;14.70;;;;;;;4.53;100.00;98195.56;5049524;28;20452;-75
2021/12/16 04:04:54;;;;;;;15.77;13.07;;;;;;;4.58;100.00;98187.78;5049592;28;20433;-75
2021/12/16 04:07:30;;;;;;;14.20;11.30;;;;;;;4.48;100.00;98175.31;5033834;28;20461;-76
2021/12/16 04:10:34;;;;;;;16.87;13.33;;;;;;;4.52;100.00;98186.09;5046786;28;20508;-75
2021/12/16 04:13:08;;;;;;;14.83;12.27;;;;;;;4.42;100.00;98177.09;5049642;28;20544;-75
2021/12/16 04:15:35;;;;;;;16.30;11.80;;;;;;;4.41;100.00;98183.38;5049275;28;20972;-75
2021/12/16 04:18:03;;;;;;;16.47;12.10;;;;;;;4.50;100.00;98199.44;5050900;28;20445;-75
2021/12/16 04:20:30;;;;;;;17.63;11.57;;;;;;;4.52;100.00;98199.22;5050621;28;21002;-75
2021/12/16 04:22:58;;;;;;;17.70;13.43;;;;;;;4.47;100.00;98191.28;5086484;28;20467;-75
2021/12/16 04:25:33;;;;;;;16.63;12.07;;;;;;;4.49;100.00;98197.06;5052824;28;20486;-75
2021/12/16 04:28:06;;;;;;;37.00;24.17;;;;;;;4.22;100.00;98147.97;5052657;28;21007;-75
2021/12/16 04:30:33;;;;;;;31.93;26.13;;;;;;;4.32;100.00;98153.38;5036386;28;20478;-75
2021/12/16 04:33:03;;;;;;;20.77;16.33;;;;;;;4.37;100.00;98168.34;5086363;28;20960;-75
2021/12/16 04:35:33;;;;;;;18.60;14.17;;;;;;;4.29;100.00;98156.47;5052620;28;20449;-75
2021/12/16 04:38:00;;;;;;;18.90;13.20;;;;;;;4.34;100.00;98168.84;5052650;28;20960;-75
2021/12/16 04:40:29;;;;;;;16.37;12.47;;;;;;;4.33;100.00;98172.50;5052406;28;20472;-75
2021/12/16 04:43:02;;;;;;;15.63;12.20;;;;;;;4.27;100.00;98173.44;5053279;28;20516;-75
2021/12/16 04:45:51;;;;;;;17.10;12.20;;;;;;;4.14;100.00;98178.00;5049898;28;20445;-75
2021/12/16 04:48:19;;;;;;;17.80;13.43;;;;;;;3.96;100.00;98156.47;5085953;28;20444;-75
2021/12/16 04:50:46;;;;;;;19.30;13.30;;;;;;;4.03;100.00;98183.31;5068870;28;20955;-75
2021/12/16 04:53:15;;;;;;;27.20;12.43;;;;;;;4.18;100.00;98186.16;5068696;28;20475;-75
2021/12/16 04:55:47;;;;;;;21.60;14.93;;;;;;;4.13;100.00;98170.34;5053101;28;20445;-75
2021/12/16 04:58:14;;;;;;;19.93;15.03;;;;;;;4.01;100.00;98169.66;5052269;28;20451;-75
2021/12/16 05:00:42;;;;;;;16.80;11.67;;;;;;;4.15;100.00;98182.19;5052094;28;21094;-75
2021/12/16 05:03:19;;;;;;;17.07;13.10;;;;;;;4.20;100.00;98186.72;5052254;28;20441;-76
2021/12/16 05:05:46;;;;;;;17.20;11.77;;;;;;;4.24;100.00;98187.81;5035507;28;20457;-75
2021/12/16 05:08:13;;;;;;;24.07;13.93;;;;;;;4.24;100.00;98169.47;5051980;28;21037;-75
2021/12/16 05:11:09;;;;;;;15.27;12.17;;;;;;;4.44;100.00;98184.72;5051174;28;20446;-75
2021/12/16 05:13:42;;;;;;;15.80;12.87;;;;;;;4.45;100.00;98183.66;5051986;28;20494;-75
2021/12/16 05:16:12;;;;;;;18.57;15.17;;;;;;;4.42;100.00;98174.47;5051925;28;20476;-75
2021/12/16 05:18:45;;;;;;;23.60;15.90;;;;;;;4.41;100.00;98172.88;5052095;28;20429;-75
2021/12/16 05:21:44;;;;;;;39.37;28.40;;;;;;;4.40;100.00;98178.34;5068313;28;20465;-75
2021/12/16 05:26:46;;;;;;;32.20;23.30;;;;;;;4.35;100.00;98159.94;5085198;28;20484;-75
2021/12/16 05:29:13;;;;;;;34.03;27.83;;;;;;;4.30;100.00;98144.19;5051756;28;20445;-75
2021/12/16 05:31:43;;;;;;;19.73;14.77;;;;;;;4.35;100.00;98162.56;5067711;28;20494;-75
2021/12/16 05:34:11;;;;;;;18.27;12.07;;;;;;;4.36;100.00;98167.56;5051640;28;20445;-75
2021/12/16 05:36:40;;;;;;;18.40;13.40;;;;;;;4.19;100.00;98153.72;5051546;28;21308;-76
2021/12/16 05:39:09;;;;;;;16.97;12.07;;;;;;;4.33;100.00;98157.56;5051509;28;20444;-75
2021/12/16 05:42:00;;;;;;;25.37;13.87;;;;;;;4.16;100.00;98151.56;5042396;28;20437;-75
2021/12/16 05:44:27;;;;;;;25.77;14.80;;;;;;;3.90;100.00;98145.16;5051339;28;20445;-75
2021/12/16 05:46:54;;;;;;;20.70;13.83;;;;;;;4.04;100.00;98172.59;5051267;28;20466;-75
2021/12/16 05:49:21;;;;;;;25.90;14.53;;;;;;;3.82;100.00;98122.00;5068142;28;21054;-75
2021/12/16 05:51:51;;;;;;;25.03;14.43;;;;;;;4.15;100.00;98147.38;5067902;28;20947;-75
2021/12/16 05:54:20;;;;;;;21.30;14.60;;;;;;;4.18;100.00;98151.34;5034790;28;20476;-76
2021/12/16 05:57:06;;;;;;;22.47;14.10;;;;;;;4.28;100.00;98161.97;5051873;28;20464;-75
2021/12/16 05:59:35;;;;;;;21.47;15.60;;;;;;;4.22;100.00;98144.56;5050994;28;20496;-75
2021/12/16 06:02:02;;;;;;;20.60;14.47;;;;;;;4.23;100.00;98159.25;5051457;28;20445;-75
2021/12/16 06:04:33;;;;;;;19.30;12.33;;;;;;;4.22;100.00;98161.06;5051099;28;20437;-75
2021/12/16 06:07:08;;;;;;;22.17;14.40;;;;;;;4.17;100.00;98152.38;5035696;28;20490;-75
2021/12/16 06:09:35;;;;;;;17.50;13.87;;;;;;;4.14;100.00;98154.44;5051000;28;20503;-75
2021/12/16 06:12:02;;;;;;;17.73;14.00;;;;;;;4.25;100.00;98172.88;5051575;28;20449;-75
2021/12/16 06:14:48;;;;;;;20.70;12.20;;;;;;;4.15;100.00;98156.03;5051867;28;20854;-75
2021/12/16 06:28:17;;;;;;;26.43;13.30;;;;;;;4.12;100.00;98171.38;5084558;28;20849;-76
2021/12/16 06:30:45;;;;;;;27.97;15.87;;;;;;;4.19;100.00;98173.84;5067120;28;20433;-75
2021/12/16 06:33:16;;;;;;;22.20;12.83;;;;;;;4.03;100.00;98160.53;5056063;28;20429;-75
2021/12/16 06:35:44;;;;;;;22.00;15.77;;;;;;;4.03;100.00;98157.91;5056451;28;20425;-74
2021/12/16 06:38:11;;;;;;;27.93;15.43;;;;;;;4.14;100.00;98179.81;5057887;28;20468;-75
2021/12/16 06:40:54;;;;;;;24.50;14.10;;;;;;;4.13;100.00;98186.06;5052696;28;20457;-75
2021/12/16 06:43:39;;;;;;;23.30;15.07;;;;;;;4.17;100.00;98187.19;5052540;28;20931;-75
2021/12/16 06:46:12;;;;;;;20.20;13.30;;;;;;;4.09;100.00;98182.34;5067848;28;20473;-75
2021/12/16 06:48:41;;;;;;;21.70;13.40;;;;;;;4.04;100.00;98177.84;5051942;28;20445;-75
2021/12/16 06:51:13;;;;;;;22.07;13.90;;;;;;;4.05;100.00;98168.94;5051233;28;20421;-75
2021/12/16 06:54:21;;;;;;;18.93;13.97;;;;;;;4.12;100.00;98184.47;5051992;28;20484;-75
2021/12/16 06:56:47;;;;;;;19.13;13.63;;;;;;;4.09;100.00;98196.22;5049651;28;20471;-75
2021/12/16 06:59:28;;;;;;;22.70;14.07;;;;;;;4.06;100.00;98183.63;5051659;28;20417;-75
2021/12/16 07:04:31;;;;;;;21.90;13.37;;;;;;;4.19;100.00;98186.94;5092581;28;20467;-75
2021/12/16 07:06:59;;;;;;;23.20;15.80;;;;;;;4.17;100.00;98181.16;5055618;28;20535;-75
2021/12/16 07:09:27;;;;;;;21.80;14.40;;;;;;;4.26;100.00;98188.34;5054975;28;20443;-76
2021/12/16 07:11:57;;;;;;;24.63;14.67;;;;;;;3.80;100.00;98126.69;5054696;28;20445;-74
2021/12/16 07:14:35;;;;;;;20.00;14.03;;;;;;;4.09;100.00;98174.50;5052141;28;20444;-74
2021/12/16 07:17:10;;;;;;;23.60;14.63;;;;;;;4.23;100.00;98191.47;5043304;28;20583;-75
2021/12/16 07:19:37;;;;;;;23.20;15.73;;;;;;;4.24;100.00;98189.63;5058801;28;20417;-75
2021/12/16 07:22:05;;;;;;;24.50;14.70;;;;;;;4.23;100.00;98188.84;5090390;28;20429;-75
2021/12/16 07:24:33;;;;;;;28.27;15.43;;;;;;;4.25;100.00;98189.38;5057311;28;20444;-75
2021/12/16 07:26:59;;;;;;;26.27;15.40;;;;;;;4.11;100.00;98178.44;5055781;28;20517;-75
2021/12/16 07:29:30;;;;;;;29.57;15.63;;;;;;;4.12;100.00;98172.19;5057597;28;20471;-75
2021/12/16 07:32:02;;;;;;;29.50;17.17;;;;;;;4.08;100.00;98144.91;5056334;28;20847;-75
2021/12/16 07:34:29;;;;;;;28.80;16.80;;;;;;;4.19;100.00;98166.78;5059745;28;20928;-75
2021/12/16 07:36:55;;;;;;;28.30;16.37;;;;;;;4.17;100.00;98176.72;5060409;28;21004;-75
2021/12/16 07:39:30;;;;;;;25.90;19.30;;;;;;;4.17;100.00;98173.31;5063999;28;20477;-75
2021/12/16 07:41:58;;;;;;;29.20;16.87;;;;;;;4.15;100.00;98176.16;5067122;28;20452;-76
2021/12/16 07:44:28;;;;;;;30.50;18.33;;;;;;;4.15;100.00;98182.19;5087701;28;20441;-75
2021/12/16 07:46:59;;;;;;;28.20;17.60;;;;;;;4.12;100.00;98187.88;5086194;28;20461;-75
2021/12/16 07:49:32;;;;;;;26.50;16.37;;;;;;;3.92;100.00;98173.69;5071709;28;20484;-74
2021/12/16 07:52:01;;;;;;;32.60;18.47;;;;;;;4.00;100.00;98178.53;5068957;28;20425;-75
2021/12/16 07:54:28;;;;;;;27.73;17.20;;;;;;;4.22;100.00;98194.31;5072453;28;20428;-75
2021/12/16 07:56:57;;;;;;;28.63;17.30;;;;;;;4.17;100.00;98189.81;5059567;28;20458;-75
2021/12/16 07:59:26;;;;;;;30.80;19.30;;;;;;;4.25;100.00;98206.94;5058204;28;20440;-75
2021/12/16 08:01:54;;;;;;;27.70;17.17;;;;;;;4.20;100.00;98202.41;5041087;28;20456;-75
2021/12/16 08:04:27;;;;;;;30.67;17.60;;;;;;;4.09;100.00;98182.34;5070797;28;20928;-75
2021/12/16 08:07:03;;;;;;;25.07;15.93;;;;;;;4.19;100.00;98195.59;5060995;28;20472;-75
2021/12/16 08:09:35;;;;;;;22.90;16.67;;;;;;;4.14;100.00;98196.31;5073282;28;20448;-76
2021/12/16 08:12:04;;;;;;;32.30;17.57;;;;;;;4.17;100.00;98205.50;5056972;28;20793;-76
2021/12/16 08:14:31;;;;;;;31.00;19.73;;;;;;;4.15;100.00;98204.97;5054075;28;20514;-76
2021/12/16 08:16:58;;;;;;;28.17;18.20;;;;;;;4.18;100.00;98208.94;5055279;28;20460;-76
2021/12/16 08:19:25;;;;;;;30.77;20.77;;;;;;;4.03;100.00;98191.94;5053184;28;20495;-76
2021/12/16 08:21:52;;;;;;;36.97;19.57;;;;;;;4.08;100.00;98206.94;5054624;28;20534;-76
2021/12/16 08:24:18;;;;;;;32.57;18.73;;;;;;;3.89;100.00;98187.25;5069822;28;20456;-75
2021/12/16 08:26:49;;;;;;;33.00;20.13;;;;;;;3.98;100.00;98191.06;5054226;28;20448;-76
2021/12/16 08:29:16;;;;;;;39.30;20.67;;;;;;;4.13;100.00;98220.09;5053068;28;20433;-76
2021/12/16 08:31:44;;;;;;;33.67;19.30;;;;;;;4.09;100.00;98216.38;5052855;28;20491;-76
2021/12/16 08:34:12;;;;;;;41.03;19.10;;;;;;;4.13;100.00;98228.72;5053061;28;20425;-76
2021/12/16 08:36:39;;;;;;;32.60;17.40;;;;;;;4.07;100.00;98228.91;5052708;28;20472;-76
2021/12/16 08:39:14;;;;;;;38.80;19.87;;;;;;;3.95;100.00;98212.47;5052742;28;20480;-76
2021/12/16 08:41:45;;;;;;;36.97;18.57;;;;;;;4.06;100.00;98233.34;5052613;28;20504;-76
2021/12/16 08:44:12;;;;;;;37.20;19.63;;;;;;;3.98;100.00;98212.78;5054044;28;20853;-76
2021/12/16 08:46:43;;;;;;;34.70;19.83;;;;;;;3.93;100.00;98204.84;5054180;28;20987;-76
2021/12/16 08:49:10;;;;;;;35.53;21.17;;;;;;;4.00;100.00;98218.56;5053992;28;20418;-76
2021/12/16 08:51:41;;;;;;;42.57;23.03;;;;;;;4.09;100.00;98219.78;5052712;28;20979;-76
2021/12/16 08:54:08;;;;;;;45.87;22.20;;;;;;;3.92;100.00;98205.88;5069177;28;20437;-76
2021/12/16 08:56:36;;;;;;;38.70;22.67;;;;;;;4.04;100.00;98232.00;5052520;28;20514;-76
2021/12/16 08:59:04;;;;;;;30.83;18.40;;;;;;;4.08;100.00;98235.72;5053679;28;21052;-76
2021/12/16 09:01:35;;;;;;;31.30;18.07;;;;;;;4.06;100.00;98235.16;5053652;28;20555;-76
2021/12/16 09:04:03;;;;;;;41.87;19.77;;;;;;;4.11;100.00;98236.03;5053926;28;20464;-76
2021/12/16 09:06:30;;;;;;;31.70;17.03;;;;;;;4.08;100.00;98227.88;5051512;28;20466;-76
2021/12/16 09:08:59;;;;;;;36.20;19.53;;;;;;;4.01;100.00;98219.38;5085895;28;20442;-76
2021/12/16 09:11:28;;;;;;;37.13;19.83;;;;;;;4.03;100.00;98222.56;5052157;28;20947;-76
2021/12/16 09:13:58;;;;;;;30.43;18.83;;;;;;;4.02;100.00;98213.91;5053511;28;20520;-76
2021/12/16 09:16:27;;;;;;;30.80;16.83;;;;;;;4.02;100.00;98216.53;5068922;28;20999;-76
2021/12/16 09:18:55;;;;;;;28.80;17.00;;;;;;;4.07;100.00;98236.75;5053405;28;20433;-76
2021/12/16 09:21:25;;;;;;;36.03;19.57;;;;;;;3.98;100.00;98227.69;5052100;28;20538;-76
2021/12/16 09:23:56;;;;;;;42.60;23.87;;;;;;;4.13;100.00;98246.25;5052124;28;20434;-76
2021/12/16 09:26:25;;;;;;;48.03;27.90;;;;;;;3.98;100.00;98219.84;5053264;28;20940;-76
2021/12/16 09:28:52;;;;;;;55.67;32.17;;;;;;;4.12;100.00;98236.81;5052219;28;20845;-76
2021/12/16 09:31:23;;;;;;;46.50;29.20;;;;;;;4.04;100.00;98230.19;5051998;28;20515;-76
2021/12/16 09:33:52;;;;;;;41.40;25.53;;;;;;;4.11;100.00;98243.09;5051752;28;20453;-76
2021/12/16 09:36:24;;;;;;;39.60;25.60;;;;;;;3.99;100.00;98208.34;5068385;28;20449;-76
2021/12/16 09:38:54;;;;;;;32.13;22.33;;;;;;;4.12;100.00;98237.63;5053381;28;20421;-76
2021/12/16 09:41:21;;;;;;;30.37;19.20;;;;;;;4.13;100.00;98238.41;5085592;28;20483;-76
2021/12/16 09:43:50;;;;;;;30.37;20.13;;;;;;;4.20;100.00;98235.66;5053254;28;20483;-76
2021/12/16 09:46:24;;;;;;;33.70;19.60;;;;;;;3.94;100.00;98184.72;5069343;28;20551;-76
2021/12/16 09:48:54;;;;;;;27.77;16.57;;;;;;;4.18;100.00;98222.00;5053761;28;20428;-76
2021/12/16 09:51:24;;;;;;;29.10;17.37;;;;;;;4.24;100.00;98228.91;5052979;28;20440;-76
2021/12/16 09:53:54;;;;;;;24.57;15.90;;;;;;;4.20;100.00;98225.97;5052729;28;20444;-76
2021/12/16 09:56:23;;;;;;;26.30;16.70;;;;;;;4.18;100.00;98229.88;5052835;28;20456;-75
2021/12/16 09:58:52;;;;;;;27.50;15.73;;;;;;;4.12;100.00;98214.06;5068184;28;20432;-75
2021/12/16 10:01:20;;;;;;;24.97;15.90;;;;;;;4.27;100.00;98221.34;5053104;28;20495;-75
2021/12/16 10:03:49;;;;;;;28.40;18.47;;;;;;;4.21;100.00;98200.59;5051228;28;20467;-75
2021/12/16 10:06:17;;;;;;;23.07;15.70;;;;;;;4.36;100.00;98224.38;5051034;28;20461;-75
2021/12/16 10:08:46;;;;;;;20.60;12.43;;;;;;;4.21;100.00;98195.34;5052421;28;20463;-75
2021/12/16 10:11:15;;;;;;;25.00;14.20;;;;;;;4.31;100.00;98211.22;5051042;28;20452;-75
2021/12/16 10:13:49;;;;;;;23.87;15.50;;;;;;;4.39;100.00;98205.56;5050998;28;20804;-75
2021/12/16 10:19:20;;;;;;;25.97;13.30;;;;;;;4.30;100.00;98191.31;5013111;28;20438;-75
2021/12/16 10:21:47;;;;;;;27.90;15.27;;;;;;;4.47;100.00;98218.28;5026841;28;20803;-75
2021/12/16 10:24:29;;;;;;;22.53;13.07;;;;;;;4.51;100.00;98215.97;5052123;28;20456;-75
2021/12/16 10:27:17;;;;;;;26.80;14.90;;;;;;;4.49;100.00;98208.34;5050759;28;20445;-76
2021/12/16 10:29:48;;;;;;;24.60;15.07;;;;;;;4.39;100.00;98193.25;5051511;28;20924;-75
2021/12/16 10:32:36;;;;;;;27.40;15.47;;;;;;;4.47;100.00;98217.47;5050762;28;20847;-75
2021/12/16 10:35:17;;;;;;;24.17;14.57;;;;;;;4.50;100.00;98209.94;5052306;28;20479;-75
2021/12/16 10:38:02;;;;;;;30.23;16.87;;;;;;;4.44;100.00;98197.81;5050380;28;20508;-75
2021/12/16 10:40:40;;;;;;;27.97;17.20;;;;;;;4.47;100.00;98199.94;5050528;28;20483;-75
2021/12/16 10:43:12;;;;;;;24.80;15.17;;;;;;;4.41;100.00;98206.94;5050492;28;20437;-75
2021/12/16 10:45:48;;;;;;;23.47;15.17;;;;;;;4.44;100.00;98210.91;5067278;28;20440;-75
2021/12/16 10:48:20;;;;;;;22.60;13.77;;;;;;;4.40;100.00;98201.91;5050470;28;20924;-75
2021/12/16 10:51:08;;;;;;;25.67;17.30;;;;;;;4.47;100.00;98192.06;5050635;28;20490;-75
2021/12/16 10:54:12;;;;;;;21.40;15.70;;;;;;;4.52;100.00;98199.22;5051749;28;20414;-75
2021/12/16 10:57:09;;;;;;;21.27;12.70;;;;;;;4.52;100.00;98191.34;5051522;28;20973;-75
2021/12/16 10:59:51;;;;;;;24.67;14.90;;;;;;;4.49;100.00;98176.13;5048690;28;20460;-75
2021/12/16 11:02:23;;;;;;;21.97;13.70;;;;;;;4.55;100.00;98180.41;5033564;28;20488;-75
2021/12/16 11:05:05;;;;;;;24.73;15.37;;;;;;;4.55;100.00;98175.97;5050018;28;20445;-75
2021/12/16 11:07:44;;;;;;;26.43;15.27;;;;;;;4.63;100.00;98175.53;5033656;28;20983;-75
2021/12/16 11:10:11;;;;;;;23.13;15.20;;;;;;;4.65;100.00;98164.81;5066754;28;20502;-75
2021/12/16 11:12:42;;;;;;;24.03;14.07;;;;;;;4.63;100.00;98170.28;5050050;28;20441;-75
2021/12/16 11:15:21;;;;;;;22.00;14.40;;;;;;;4.67;100.00;98170.59;5050112;28;20460;-75
2021/12/16 11:17:56;;;;;;;22.13;16.17;;;;;;;4.67;100.00;98165.34;5066631;28;21005;-75
2021/12/16 11:20:31;;;;;;;20.07;13.07;;;;;;;4.66;100.00;98166.41;5050025;28;20429;-75
2021/12/16 11:23:21;;;;;;;22.10;15.70;;;;;;;4.64;100.00;98156.16;5068137;28;20479;-76
2021/12/16 11:25:51;;;;;;;23.20;14.93;;;;;;;4.71;100.00;98156.00;5050931;28;20909;-76
2021/12/16 11:28:23;;;;;;;25.53;15.13;;;;;;;4.62;100.00;98128.63;5049757;28;20445;-76
2021/12/16 11:30:50;;;;;;;25.73;13.30;;;;;;;4.79;100.00;98152.16;5055822;28;20417;-76
2021/12/16 11:33:32;;;;;;;23.83;15.33;;;;;;;4.68;100.00;98138.94;5057729;28;20923;-76
2021/12/16 11:36:26;;;;;;;20.93;13.87;;;;;;;4.76;100.00;98166.53;5089910;28;20460;-76
2021/12/16 11:39:00;;;;;;;20.47;14.83;;;;;;;4.72;100.00;98132.16;5056458;28;20441;-76
2021/12/16 11:41:37;;;;;;;20.20;14.23;;;;;;;4.83;100.00;98138.34;5056271;28;20533;-76
2021/12/16 11:44:20;;;;;;;22.57;14.63;;;;;;;4.91;100.00;98145.75;5057860;28;20429;-76
2021/12/16 11:46:51;;;;;;;27.10;15.97;;;;;;;4.75;100.00;98129.06;5056340;28;20449;-76
2021/12/16 11:49:44;;;;;;;24.17;16.37;;;;;;;4.95;100.00;98157.34;5057798;28;20470;-76
2021/12/16 11:52:15;;;;;;;29.50;15.60;;;;;;;5.08;100.00;98156.19;5056226;28;20425;-76
2021/12/16 11:54:55;;;;;;;20.13;13.90;;;;;;;5.09;100.00;98156.97;5072716;28;20436;-76
2021/12/16 11:57:41;;;;;;;27.43;15.17;;;;;;;4.99;100.00;98141.91;5056049;28;20464;-76
2021/12/16 12:00:16;;;;;;;24.00;17.30;;;;;;;5.05;100.00;98151.41;5056152;28;20472;-76
2021/12/16 12:02:55;;;;;;;30.50;20.43;;;;;;;5.06;100.00;98160.84;5056410;28;20475;-76
2021/12/16 12:05:22;;;;;;;31.33;22.20;;;;;;;5.15;100.00;98151.53;5072705;28;20417;-76
2021/12/16 12:08:00;;;;;;;27.90;18.87;;;;;;;5.06;100.00;98137.25;5057329;28;20597;-76
2021/12/16 12:10:38;;;;;;;30.93;19.70;;;;;;;5.26;100.00;98161.09;5056215;28;20421;-76
2021/12/16 12:13:07;;;;;;;22.70;17.00;;;;;;;5.30;100.00;98162.19;5057419;28;20884;-76
2021/12/16 12:16:04;;;;;;;32.33;18.37;;;;;;;5.26;100.00;98147.19;5056508;28;20436;-76
2021/12/16 12:18:33;;;;;;;22.03;15.87;;;;;;;5.27;100.00;98172.38;5073861;28;20444;-76
2021/12/16 12:21:27;;;;;;;22.90;15.00;;;;;;;5.31;100.00;98162.97;5058248;28;20777;-76
2021/12/16 12:24:01;;;;;;;24.07;15.23;;;;;;;5.23;100.00;98176.53;5056209;28;20946;-76
2021/12/16 12:26:31;;;;;;;27.03;15.40;;;;;;;4.99;100.00;98173.38;5057264;28;20499;-76
2021/12/16 12:29:10;;;;;;;24.13;17.37;;;;;;;4.99;100.00;98173.38;5057228;28;20440;-76
2021/12/16 12:31:42;;;;;;;26.80;18.17;;;;;;;5.07;100.00;98174.75;5057330;28;20456;-76
2021/12/16 12:34:08;;;;;;;25.13;15.53;;;;;;;4.92;100.00;98170.13;5072644;28;20463;-77
2021/12/16 12:36:36;;;;;;;25.27;17.47;;;;;;;5.11;100.00;98179.28;5055746;28;20816;-76
2021/12/16 12:39:08;;;;;;;22.40;15.10;;;;;;;5.06;100.00;98173.97;5055769;28;20522;-73
2021/12/16 12:41:35;;;;;;;23.90;17.10;;;;;;;4.84;100.00;98167.94;5054228;28;20528;-73
2021/12/16 12:44:04;;;;;;;25.60;17.57;;;;;;;4.89;100.00;98176.66;5052546;28;20467;-74
2021/12/16 12:46:38;;;;;;;23.37;15.77;;;;;;;4.77;100.00;98183.84;5052457;28;20465;-74
2021/12/16 12:49:14;;;;;;;26.30;17.27;;;;;;;4.92;100.00;98176.16;5053941;28;20463;-74
2021/12/16 12:51:47;;;;;;;25.87;18.13;;;;;;;5.03;100.00;98177.09;5036222;28;20433;-74
2021/12/16 12:54:28;;;;;;;26.67;16.63;;;;;;;5.10;100.00;98185.56;5052639;28;20935;-74
2021/12/16 12:56:58;;;;;;;26.40;17.10;;;;;;;5.10;100.00;98182.16;5054082;28;20874;-74
2021/12/16 12:59:35;;;;;;;23.13;16.77;;;;;;;5.01;100.00;98187.03;5052544;28;20471;-74
2021/12/16 13:02:13;;;;;;;30.40;17.10;;;;;;;5.08;100.00;98189.47;5085789;28;20469;-74
2021/12/16 13:04:52;;;;;;;21.77;17.13;;;;;;;5.10;100.00;98195.25;5052499;28;20763;-74
2021/12/16 13:07:32;;;;;;;23.73;15.30;;;;;;;5.05;100.00;98196.78;5069426;28;20532;-74
2021/12/16 13:10:06;;;;;;;24.40;15.77;;;;;;;5.08;100.00;98185.03;5052288;28;20475;-74
2021/12/16 13:12:49;;;;;;;21.50;16.93;;;;;;;5.18;100.00;98192.19;5052097;28;20433;-74
2021/12/16 13:15:29;;;;;;;25.90;17.40;;;;;;;5.18;100.00;98187.75;5053452;28;20421;-74
2021/12/16 13:23:45;;;;;;;28.67;19.53;;;;;;;5.12;100.00;98164.34;5085417;28;20461;-74
2021/12/16 13:26:33;;;;;;;25.50;17.00;;;;;;;5.08;100.00;98158.81;5051779;28;20500;-74
2021/12/16 13:29:12;;;;;;;31.60;19.50;;;;;;;5.19;100.00;98178.84;5053180;28;20421;-75
2021/12/16 13:32:04;;;;;;;26.67;18.63;;;;;;;4.99;100.00;98176.78;5053139;28;20507;-74
2021/12/16 13:34:58;;;;;;;26.73;19.23;;;;;;;4.91;100.00;98173.78;5068318;28;20441;-74
2021/12/16 13:37:35;;;;;;;25.40;18.53;;;;;;;5.08;100.00;98186.84;5055363;28;20474;-74
2021/12/16 13:40:18;;;;;;;23.50;16.17;;;;;;;4.98;100.00;98203.25;5035798;28;20455;-75
2021/12/16 13:42:57;;;;;;;25.70;17.93;;;;;;;4.97;100.00;98194.59;5055033;28;20449;-75
2021/12/16 13:45:48;;;;;;;24.10;16.73;;;;;;;5.05;100.00;98194.16;5052443;28;20892;-76
2021/12/16 14:02:50;;;;;;;21.97;16.83;;;;;;;5.07;100.00;98183.41;5053829;28;20557;-75
2021/12/16 14:05:39;;;;;;;24.53;17.73;;;;;;;5.22;100.00;98193.31;5051826;28;20414;-75
2021/12/16 14:08:10;;;;;;;24.00;17.63;;;;;;;5.19;100.00;98194.56;5051412;28;20865;-75
2021/12/16 14:10:50;;;;;;;29.80;18.87;;;;;;;5.01;100.00;98195.69;5051706;28;20827;-75
2021/12/16 14:47:05;;;;;;;26.60;16.33;;;;;;;4.80;100.00;98206.94;5083902;28;20507;-75
2021/12/16 14:49:41;;;;;;;30.60;19.17;;;;;;;4.84;100.00;98207.25;5050354;28;20444;-75
2021/12/16 14:52:18;;;;;;;32.70;20.70;;;;;;;5.03;100.00;98221.66;5050379;28;20429;-75
2021/12/16 14:54:52;;;;;;;28.30;19.83;;;;;;;5.20;100.00;98211.09;5050260;28;20468;-75
2021/12/16 14:57:36;;;;;;;27.93;21.97;;;;;;;5.25;100.00;98205.94;5050168;28;20481;-75
2021/12/16 15:00:12;;;;;;;25.63;18.60;;;;;;;5.29;100.00;98222.75;5051440;28;20417;-75
2021/12/16 15:02:41;;;;;;;25.43;18.50;;;;;;;5.14;100.00;98222.56;5050333;28;20457;-75
2021/12/16 15:05:46;;;;;;;28.03;17.90;;;;;;;5.00;100.00;98228.19;5050524;28;20425;-75
2021/12/16 15:08:44;;;;;;;28.70;18.23;;;;;;;5.13;100.00;98219.16;4973425;28;20467;-75
2021/12/16 15:11:16;;;;;;;34.00;21.30;;;;;;;5.08;100.00;98202.59;5050047;28;20441;-75
2021/12/16 15:13:55;;;;;;;43.17;24.17;;;;;;;5.27;100.00;98220.38;5051421;28;20475;-75